createdAt,value
2023-05-10T00:01:57.061Z,101000.38
2023-05-10T00:04:23.518Z,101001.19
2023-05-10T00:06:49.899Z,101000.38
2023-05-10T00:09:16.342Z,100992.13
2023-05-10T00:11:42.922Z,100995.88
2023-05-10T00:14:09.334Z,100989.47
2023-05-10T00:16:35.736Z,100986.53
2023-05-10T00:19:02.243Z,100990.75
2023-05-10T00:21:29.345Z,100989.97
2023-05-10T00:23:56.116Z,100983.88
2023-05-10T00:26:22.483Z,100985.75
2023-05-10T00:28:48.867Z,100981.53
2023-05-10T00:31:15.641Z,100985.38
2023-05-10T00:33:42.010Z,100979.66
2023-05-10T00:36:08.560Z,100974.06
2023-05-10T00:38:35.014Z,100980.66
2023-05-10T00:41:01.674Z,100988.31
2023-05-10T00:43:28.070Z,100988.03
2023-05-10T00:45:54.776Z,100988.81
2023-05-10T00:48:21.273Z,100987.03
2023-05-10T00:50:47.680Z,100981.16
2023-05-10T00:53:14.167Z,100980.56
2023-05-10T00:55:40.578Z,100989.78
2023-05-10T00:58:07.093Z,100988.41
2023-05-10T01:00:34.389Z,100988.13
2023-05-10T01:03:01.619Z,100994.19
2023-05-10T01:05:28.430Z,100992.31
2023-05-10T01:07:54.815Z,100985.75
2023-05-10T01:10:21.282Z,100992.59
2023-05-10T01:12:48.322Z,100998.72
2023-05-10T01:15:16.060Z,100993.72
2023-05-10T01:17:44.857Z,100998.22
2023-05-10T01:20:11.935Z,100989.19
2023-05-10T01:23:03.451Z,101001.38
2023-05-10T01:25:29.741Z,100998.22
2023-05-10T01:28:14.794Z,101001.19
2023-05-10T01:30:44.373Z,100999.69
2023-05-10T01:33:29.155Z,100990.25
2023-05-10T01:35:55.446Z,100994.31
2023-05-10T01:38:36.939Z,100984.88
2023-05-10T01:41:13.402Z,101000.97
2023-05-10T01:43:57.324Z,100991.94
2023-05-10T01:46:34.452Z,100991.94
2023-05-10T01:49:01.782Z,100995.84
2023-05-10T01:51:32.649Z,100989.88
2023-05-10T01:54:02.827Z,100998.59
2023-05-10T01:56:31.113Z,101003.41
2023-05-10T01:58:58.159Z,100994.00
2023-05-10T02:01:27.123Z,101001.44
2023-05-10T02:03:55.175Z,101004.41
2023-05-10T02:06:23.256Z,101002.53
2023-05-10T02:08:50.941Z,101003.63
2023-05-10T02:11:18.980Z,101005.69
2023-05-10T02:13:46.046Z,101008.03
2023-05-10T02:16:13.670Z,101000.97
2023-05-10T02:18:42.295Z,100995.38
2023-05-10T02:21:09.358Z,101006.97
2023-05-10T02:23:36.862Z,101017.25
2023-05-10T02:26:03.742Z,101015.69
2023-05-10T02:28:30.680Z,101014.13
2023-05-10T02:30:57.136Z,101014.94
2023-05-10T02:33:23.605Z,101016.47
2023-05-10T02:35:51.519Z,101018.63
2023-05-10T02:38:20.423Z,101009.91
2023-05-10T02:40:47.914Z,101012.38
2023-05-10T02:43:15.619Z,101013.44
2023-05-10T02:45:43.684Z,101008.44
2023-05-10T02:48:10.428Z,101015.09
2023-05-10T02:50:37.946Z,101020.38
2023-05-10T02:53:12.549Z,101013.31
2023-05-10T02:55:40.860Z,101017.78
2023-05-10T02:58:07.283Z,101013.59
2023-05-10T03:00:33.792Z,101022.13
2023-05-10T03:03:00.314Z,101021.06
2023-05-10T03:05:26.792Z,101033.78
2023-05-10T03:07:53.701Z,101035.66
2023-05-10T03:10:20.985Z,101033.78
2023-05-10T03:13:02.516Z,101025.16
2023-05-10T03:15:47.147Z,101027.78
2023-05-10T03:18:23.418Z,101031.53
2023-05-10T03:20:52.016Z,101034.47
2023-05-10T03:23:21.037Z,101032.91
2023-05-10T03:25:49.261Z,101032.69
2023-05-10T03:28:16.676Z,101045.25
2023-05-10T03:30:44.295Z,101037.88
2023-05-10T03:33:11.687Z,101031.84
2023-05-10T03:35:38.076Z,101041.47
2023-05-10T03:38:04.484Z,101042.84
2023-05-10T03:40:32.737Z,101042.03
2023-05-10T03:42:59.993Z,101045.25
2023-05-10T03:45:26.409Z,101049.00
2023-05-10T03:47:52.861Z,101046.34
2023-05-10T03:50:19.607Z,101053.72
2023-05-10T03:52:46.237Z,101052.91
2023-05-10T03:55:12.794Z,101050.25
2023-05-10T03:57:39.451Z,101044.69
2023-05-10T04:00:06.375Z,101052.34
2023-05-10T04:02:32.984Z,101054.41
2023-05-10T04:04:59.442Z,101049.13
2023-05-10T04:07:25.801Z,101059.13
2023-05-10T04:09:52.151Z,101058.03
2023-05-10T04:12:18.532Z,101059.34
2023-05-10T04:14:44.896Z,101056.78
2023-05-10T04:17:11.569Z,101059.50
2023-05-10T04:19:38.094Z,101066.16
2023-05-10T04:22:04.514Z,101062.81
2023-05-10T04:24:30.909Z,101061.81
2023-05-10T04:26:57.972Z,101066.03
2023-05-10T04:29:24.556Z,101061.91
2023-05-10T04:31:51.886Z,101069.25
2023-05-10T04:34:18.403Z,101063.16
2023-05-10T04:36:44.815Z,101062.69
2023-05-10T04:39:11.553Z,101077.78
2023-05-10T04:41:39.307Z,101078.06
2023-05-10T04:44:05.709Z,101075.13
2023-05-10T04:46:32.194Z,101076.75
2023-05-10T04:48:58.646Z,101076.47
2023-05-10T04:51:25.025Z,101077.78
2023-05-10T04:54:04.701Z,101077.47
2023-05-10T04:56:32.737Z,101087.28
2023-05-10T04:58:59.184Z,101091.00
2023-05-10T05:01:25.634Z,101091.00
2023-05-10T05:03:53.742Z,101098.16
2023-05-10T05:06:21.812Z,101093.34
2023-05-10T05:08:50.019Z,101102.88
2023-05-10T05:11:16.444Z,101107.19
2023-05-10T05:13:42.910Z,101110.41
2023-05-10T05:16:09.380Z,101109.91
2023-05-10T05:18:35.860Z,101111.75
2023-05-10T05:21:02.281Z,101108.81
2023-05-10T05:23:28.714Z,101113.53
2023-05-10T05:25:55.303Z,101111.59
2023-05-10T05:28:22.030Z,101115.25
2023-05-10T05:30:48.410Z,101117.84
2023-05-10T05:33:16.422Z,101110.88
2023-05-10T05:35:45.572Z,101120.91
2023-05-10T05:38:12.308Z,101129.53
2023-05-10T05:40:38.744Z,101124.53
2023-05-10T05:43:05.099Z,101131.13
2023-05-10T05:45:31.463Z,101128.69
2023-05-10T05:47:57.860Z,101131.63
2023-05-10T05:50:24.275Z,101132.19
2023-05-10T05:52:50.862Z,101139.94
2023-05-10T05:55:17.624Z,101142.66
2023-05-10T05:57:44.218Z,101145.59
2023-05-10T06:00:11.292Z,101144.81
2023-05-10T06:02:37.855Z,101150.88
2023-05-10T06:05:04.669Z,101154.03
2023-05-10T06:07:31.100Z,101152.75
2023-05-10T06:09:57.510Z,101155.47
2023-05-10T06:12:23.863Z,101159.47
2023-05-10T06:14:50.215Z,101161.53
2023-05-10T06:17:16.632Z,101160.53
2023-05-10T06:19:42.994Z,101158.41
2023-05-10T06:22:09.425Z,101161.03
2023-05-10T06:24:35.953Z,101160.75
2023-05-10T06:27:02.865Z,101161.31
2023-05-10T06:29:29.286Z,101166.91
2023-05-10T06:31:55.874Z,101171.63
2023-05-10T06:34:22.435Z,101175.59
2023-05-10T06:36:48.784Z,101175.78
2023-05-10T06:39:15.197Z,101171.06
2023-05-10T06:41:41.618Z,101170.84
2023-05-10T06:44:07.991Z,101163.19
2023-05-10T06:46:34.413Z,101166.06
2023-05-10T06:49:00.857Z,101164.91
2023-05-10T06:51:27.293Z,101168.84
2023-05-10T06:53:53.871Z,101169.25
2023-05-10T06:56:22.373Z,101171.34
2023-05-10T06:58:49.482Z,101183.72
2023-05-10T07:01:16.092Z,101177.06
2023-05-10T07:03:42.568Z,101183.59
2023-05-10T07:06:15.646Z,101179.56
2023-05-10T07:08:48.423Z,101189.50
2023-05-10T07:11:14.795Z,101193.19
2023-05-10T07:13:44.979Z,101191.81
2023-05-10T07:16:11.413Z,101195.69
2023-05-10T07:18:37.931Z,101189.00
2023-05-10T07:21:04.434Z,101191.94
2023-05-10T07:23:30.950Z,101199.91
2023-05-10T07:25:58.405Z,101194.88
2023-05-10T07:28:27.870Z,101196.69
2023-05-10T07:30:54.335Z,101190.31
2023-05-10T07:33:21.271Z,101194.44
2023-05-10T07:35:47.824Z,101205.47
2023-05-10T07:38:14.270Z,101194.56
2023-05-10T07:40:40.808Z,101193.78
2023-05-10T07:43:07.375Z,101196.91
2023-05-10T07:45:34.455Z,101199.81
2023-05-10T07:48:01.180Z,101201.38
2023-05-10T07:50:27.996Z,101211.38
2023-05-10T07:52:54.535Z,101215.63
2023-05-10T07:55:22.199Z,101218.84
2023-05-10T07:57:48.721Z,101213.34
2023-05-10T08:00:19.220Z,101213.84
2023-05-10T08:02:45.988Z,101224.34
2023-05-10T08:05:12.512Z,101227.59
2023-05-10T08:07:38.917Z,101225.22
2023-05-10T08:10:06.109Z,101233.47
2023-05-10T08:12:32.519Z,101238.19
2023-05-10T08:14:58.993Z,101230.16
2023-05-10T08:17:25.673Z,101241.53
2023-05-10T08:19:52.071Z,101240.75
2023-05-10T08:22:18.503Z,101245.78
2023-05-10T08:24:44.893Z,101246.75
2023-05-10T08:27:11.298Z,101252.06
2023-05-10T08:29:49.032Z,101255.22
2023-05-10T08:32:16.192Z,101251.19
2023-05-10T08:34:42.605Z,101255.72
2023-05-10T08:37:09.225Z,101261.72
2023-05-10T08:39:36.404Z,101254.97
2023-05-10T08:42:05.296Z,101246.63
2023-05-10T08:44:36.618Z,101246.63
2023-05-10T08:47:07.974Z,101255.09
2023-05-10T08:49:34.729Z,101251.78
2023-05-10T08:52:04.562Z,101252.47
2023-05-10T08:54:32.809Z,101252.56
2023-05-10T08:56:59.400Z,101270.25
2023-05-10T08:59:25.912Z,101263.84
2023-05-10T09:01:55.124Z,101265.72
2023-05-10T09:04:22.234Z,101269.13
2023-05-10T09:06:48.756Z,101269.31
2023-05-10T09:09:15.725Z,101264.78
2023-05-10T09:11:42.135Z,101267.94
2023-05-10T09:14:10.416Z,101276.28
2023-05-10T09:16:36.885Z,101261.66
2023-05-10T09:19:03.877Z,101272.34
2023-05-10T09:21:32.112Z,101272.31
2023-05-10T09:24:04.254Z,101275.25
2023-05-10T09:26:30.634Z,101279.91
2023-05-10T09:28:58.587Z,101280.47
2023-05-10T09:31:26.757Z,101281.78
2023-05-10T09:33:54.896Z,101280.94
2023-05-10T09:36:21.295Z,101287.72
2023-05-10T09:38:55.723Z,101288.19
2023-05-10T09:41:23.234Z,101306.81
2023-05-10T09:43:50.520Z,101305.91
2023-05-10T09:46:17.197Z,101304.50
2023-05-10T09:48:45.788Z,101308.16
2023-05-10T09:51:20.013Z,101301.06
2023-05-10T09:53:46.842Z,101304.81
2023-05-10T09:56:13.223Z,101314.50
2023-05-10T09:58:40.080Z,101311.28
2023-05-10T10:01:12.121Z,101318.72
2023-05-10T10:03:43.219Z,101318.53
2023-05-10T10:06:18.857Z,101324.47
2023-05-10T10:08:49.209Z,101321.13
2023-05-10T10:11:15.725Z,101321.44
2023-05-10T10:13:42.122Z,101325.38
2023-05-10T10:16:09.627Z,101321.22
2023-05-10T10:18:39.710Z,101323.97
2023-05-10T10:21:11.891Z,101331.22
2023-05-10T10:23:38.317Z,101329.25
2023-05-10T10:26:05.493Z,101328.88
2023-05-10T10:28:52.856Z,101330.06
2023-05-10T10:31:40.274Z,101327.03
2023-05-10T10:34:08.054Z,101323.94
2023-05-10T10:36:41.532Z,101326.16
2023-05-10T10:39:10.540Z,101327.78
2023-05-10T10:41:39.089Z,101322.16
2023-05-10T10:44:26.848Z,101329.28
2023-05-10T10:47:06.659Z,101328.50
2023-05-10T10:49:36.908Z,101320.69
2023-05-10T10:52:29.301Z,101321.47
2023-05-10T10:55:10.163Z,101329.47
2023-05-10T10:57:42.392Z,101322.88
2023-05-10T11:00:22.203Z,101325.59
2023-05-10T11:02:52.432Z,101338.47
2023-05-10T11:05:34.913Z,101342.25
2023-05-10T11:08:02.624Z,101334.84
2023-05-10T11:10:29.775Z,101345.06
2023-05-10T11:13:09.936Z,101340.63
2023-05-10T11:15:40.349Z,101346.72
2023-05-10T11:18:25.445Z,101351.59
2023-05-10T11:20:53.312Z,101348.31
2023-05-10T11:23:20.638Z,101352.88
2023-05-10T11:25:47.058Z,101344.41
2023-05-10T11:28:14.101Z,101346.88
2023-05-10T11:30:41.501Z,101350.00
2023-05-10T11:33:09.109Z,101349.94
2023-05-10T11:35:43.012Z,101351.47
2023-05-10T11:38:11.243Z,101358.31
2023-05-10T11:40:38.505Z,101354.25
2023-05-10T11:43:05.319Z,101359.75
2023-05-10T11:45:35.506Z,101363.91
2023-05-10T11:48:02.508Z,101361.72
2023-05-10T11:50:29.147Z,101357.47
2023-05-10T11:52:59.721Z,101364.06
2023-05-10T11:55:26.180Z,101370.78
2023-05-10T11:57:53.895Z,101364.22
2023-05-10T12:00:20.821Z,101365.09
2023-05-10T12:02:47.754Z,101366.88
2023-05-10T12:05:14.324Z,101370.31
2023-05-10T12:07:40.755Z,101378.09
2023-05-10T12:10:09.141Z,101374.97
2023-05-10T12:12:45.880Z,101374.00
2023-05-10T12:15:25.385Z,101375.75
2023-05-10T12:17:52.375Z,101379.78
2023-05-10T12:20:25.360Z,101381.97
2023-05-10T12:22:54.006Z,101376.63
2023-05-10T12:25:21.752Z,101383.56
2023-05-10T12:27:49.993Z,101379.78
2023-05-10T12:30:20.904Z,101382.78
2023-05-10T12:32:47.296Z,101375.63
2023-05-10T12:35:13.744Z,101381.16
2023-05-10T12:37:40.176Z,101377.75
2023-05-10T12:40:09.038Z,101378.09
2023-05-10T12:42:36.900Z,101382.66
2023-05-10T12:45:04.701Z,101380.63
2023-05-10T12:47:31.240Z,101374.84
2023-05-10T12:49:57.710Z,101380.84
2023-05-10T12:52:24.897Z,101377.38
2023-05-10T12:54:51.347Z,101382.09
2023-05-10T12:57:18.205Z,101379.91
2023-05-10T12:59:44.581Z,101379.66
2023-05-10T13:02:11.216Z,101382.03
2023-05-10T13:04:40.652Z,101388.16
2023-05-10T13:07:10.378Z,101391.47
2023-05-10T13:09:36.969Z,101396.31
2023-05-10T13:12:03.516Z,101385.78
2023-05-10T13:14:30.228Z,101391.78
2023-05-10T13:16:56.665Z,101398.03
2023-05-10T13:19:23.157Z,101394.91
2023-05-10T13:21:49.533Z,101397.13
2023-05-10T13:24:16.043Z,101398.97
2023-05-10T13:26:42.478Z,101398.50
2023-05-10T13:29:09.013Z,101411.84
2023-05-10T13:31:35.807Z,101407.28
2023-05-10T13:34:03.312Z,101411.69
2023-05-10T13:36:29.765Z,101409.81
2023-05-10T13:38:56.342Z,101414.31
2023-05-10T13:41:22.886Z,101409.91
2023-05-10T13:43:50.184Z,101413.66
2023-05-10T13:46:16.656Z,101407.84
2023-05-10T13:48:43.100Z,101405.63
2023-05-10T13:51:09.465Z,101415.81
2023-05-10T13:53:35.841Z,101407.50
2023-05-10T13:56:03.711Z,101413.91
2023-05-10T13:58:30.067Z,101413.28
2023-05-10T14:00:56.813Z,101411.88
2023-05-10T14:03:23.248Z,101426.94
2023-05-10T14:05:49.812Z,101417.06
2023-05-10T14:08:16.672Z,101408.44
2023-05-10T14:10:43.046Z,101416.56
2023-05-10T14:13:09.445Z,101417.69
2023-05-10T14:15:35.801Z,101409.56
2023-05-10T14:18:02.589Z,101418.34
2023-05-10T14:20:29.225Z,101416.78
2023-05-10T14:22:55.636Z,101406.13
2023-05-10T14:25:22.004Z,101411.28
2023-05-10T14:27:48.792Z,101409.78
2023-05-10T14:30:15.853Z,101411.06
2023-05-10T14:32:42.399Z,101408.41
2023-05-10T14:35:11.449Z,101409.81
2023-05-10T14:37:39.394Z,101409.97
2023-05-10T14:40:07.420Z,101417.19
2023-05-10T14:42:33.843Z,101416.25
2023-05-10T14:45:00.287Z,101411.84
2023-05-10T14:47:26.704Z,101410.31
2023-05-10T14:49:53.083Z,101412.47
2023-05-10T14:52:19.449Z,101420.63
2023-05-10T14:54:46.059Z,101424.72
2023-05-10T14:57:12.433Z,101428.47
2023-05-10T14:59:38.801Z,101416.69
2023-05-10T15:02:05.753Z,101427.19
2023-05-10T15:04:32.703Z,101420.28
2023-05-10T15:07:00.437Z,101424.47
2023-05-10T15:09:28.403Z,101433.41
2023-05-10T15:11:55.466Z,101432.31
2023-05-10T15:14:21.837Z,101434.34
2023-05-10T15:16:48.210Z,101438.41
2023-05-10T15:19:14.585Z,101436.41
2023-05-10T15:21:43.350Z,101444.72
2023-05-10T15:24:10.538Z,101442.22
2023-05-10T15:26:36.925Z,101443.97
2023-05-10T15:29:03.338Z,101442.09
2023-05-10T15:31:29.809Z,101444.13
2023-05-10T15:34:02.044Z,101441.22
2023-05-10T15:36:28.396Z,101444.53
2023-05-10T15:38:55.607Z,101454.25
2023-05-10T15:41:21.999Z,101449.06
2023-05-10T15:43:48.353Z,101450.13
2023-05-10T15:46:14.727Z,101448.56
2023-05-10T15:48:41.122Z,101460.47
2023-05-10T15:51:07.494Z,101459.81
2023-05-10T15:53:34.037Z,101458.88
2023-05-10T15:56:00.413Z,101466.44
2023-05-10T15:58:26.839Z,101460.00
2023-05-10T16:00:53.345Z,101457.34
2023-05-10T16:03:19.813Z,101455.72
2023-05-10T16:05:46.577Z,101452.25
2023-05-10T16:08:13.145Z,101458.06
2023-05-10T16:10:39.616Z,101455.38
2023-05-10T16:13:06.257Z,101451.16
2023-05-10T16:15:32.719Z,101457.81
2023-05-10T16:17:59.303Z,101453.41
2023-05-10T16:20:26.668Z,101466.00
2023-05-10T16:22:53.063Z,101459.09
2023-05-10T16:25:19.750Z,101463.50
2023-05-10T16:27:46.382Z,101458.91
2023-05-10T16:30:12.958Z,101463.72
2023-05-10T16:32:39.418Z,101468.06
2023-05-10T16:35:06.383Z,101468.31
2023-05-10T16:37:32.941Z,101471.38
2023-05-10T16:39:59.675Z,101468.72
2023-05-10T16:42:27.988Z,101467.13
2023-05-10T16:44:54.715Z,101476.13
2023-05-10T16:47:21.209Z,101467.13
2023-05-10T16:49:47.602Z,101467.09
2023-05-10T16:52:14.066Z,101468.53
2023-05-10T16:54:40.529Z,101476.78
2023-05-10T16:57:08.424Z,101479.19
2023-05-10T16:59:34.857Z,101481.25
2023-05-10T17:02:01.313Z,101483.75
2023-05-10T17:04:28.634Z,101481.84
2023-05-10T17:06:55.054Z,101486.59
2023-05-10T17:09:21.520Z,101490.69
2023-05-10T17:11:47.875Z,101493.19
2023-05-10T17:14:14.297Z,101490.53
2023-05-10T17:16:41.818Z,101487.09
2023-05-10T17:19:08.855Z,101487.25
2023-05-10T17:21:35.391Z,101485.81
2023-05-10T17:24:01.787Z,101506.53
2023-05-10T17:26:29.876Z,101492.41
2023-05-10T17:28:56.247Z,101500.06
2023-05-10T17:31:22.687Z,101493.50
2023-05-10T17:33:49.189Z,101495.50
2023-05-10T17:36:15.647Z,101506.03
2023-05-10T17:38:43.375Z,101508.06
2023-05-10T17:41:09.802Z,101501.09
2023-05-10T17:43:36.476Z,101514.75
2023-05-10T17:46:03.544Z,101513.78
2023-05-10T17:48:29.992Z,101510.66
2023-05-10T17:50:56.553Z,101517.69
2023-05-10T17:53:22.998Z,101515.00
2023-05-10T17:55:51.534Z,101520.28
2023-05-10T17:58:17.936Z,101527.81
2023-05-10T18:00:44.739Z,101527.19
2023-05-10T18:03:11.314Z,101519.19
2023-05-10T18:05:38.829Z,101531.09
2023-05-10T18:08:05.602Z,101530.31
2023-05-10T18:10:32.293Z,101531.69
2023-05-10T18:12:58.735Z,101535.78
2023-05-10T18:15:25.483Z,101532.13
2023-05-10T18:17:51.918Z,101532.44
2023-05-10T18:20:18.623Z,101531.97
2023-05-10T18:22:45.087Z,101538.72
2023-05-10T18:25:11.518Z,101536.00
2023-05-10T18:27:38.282Z,101529.69
2023-05-10T18:30:06.224Z,101533.25
2023-05-10T18:32:32.652Z,101532.78
2023-05-10T18:34:59.106Z,101534.97
2023-05-10T18:37:25.554Z,101536.03
2023-05-10T18:39:51.991Z,101539.03
2023-05-10T18:42:18.384Z,101536.69
2023-05-10T18:44:44.949Z,101534.31
2023-05-10T18:47:11.652Z,101533.50
2023-05-10T18:49:38.792Z,101542.44
2023-05-10T18:52:05.207Z,101534.38
2023-05-10T18:54:31.654Z,101537.91
2023-05-10T18:56:58.674Z,101541.97
2023-05-10T18:59:25.585Z,101545.25
2023-05-10T19:01:53.146Z,101547.41
2023-05-10T19:04:21.036Z,101551.75
2023-05-10T19:06:47.734Z,101550.00
2023-05-10T19:09:14.185Z,101546.56
2023-05-10T19:11:41.046Z,101543.41
2023-05-10T19:14:07.453Z,101552.78
2023-05-10T19:16:35.912Z,101552.00
2023-05-10T19:19:03.032Z,101551.50
2023-05-10T19:21:31.944Z,101559.50
2023-05-10T19:23:58.784Z,101557.13
2023-05-10T19:26:25.270Z,101558.50
2023-05-10T19:28:52.420Z,101560.50
2023-05-10T19:31:19.426Z,101564.34
2023-05-10T19:33:46.848Z,101574.72
2023-05-10T19:36:13.486Z,101577.38
2023-05-10T19:38:40.003Z,101578.19
2023-05-10T19:41:07.768Z,101582.22
2023-05-10T19:43:36.503Z,101580.44
2023-05-10T19:46:02.899Z,101579.66
2023-05-10T19:48:29.890Z,101581.53
2023-05-10T19:51:00.797Z,101585.56
2023-05-10T19:53:27.645Z,101594.94
2023-05-10T19:55:54.394Z,101589.25
2023-05-10T19:58:20.856Z,101596.34
2023-05-10T20:00:47.255Z,101608.84
2023-05-10T20:03:13.661Z,101607.66
2023-05-10T20:05:40.271Z,101605.91
2023-05-10T20:08:06.738Z,101600.75
2023-05-10T20:10:33.188Z,101601.56
2023-05-10T20:13:00.403Z,101595.75
2023-05-10T20:15:29.541Z,101594.50
2023-05-10T20:17:56.115Z,101598.94
2023-05-10T20:20:22.875Z,101598.44
2023-05-10T20:22:49.942Z,101603.47
2023-05-10T20:25:17.312Z,101603.75
2023-05-10T20:27:44.060Z,101600.09
2023-05-10T20:30:11.353Z,101606.41
2023-05-10T20:32:38.332Z,101597.34
2023-05-10T20:35:09.617Z,101596.38
2023-05-10T20:37:37.855Z,101611.31
2023-05-10T20:40:05.964Z,101607.97
2023-05-10T20:42:32.492Z,101619.19
2023-05-10T20:44:58.925Z,101614.25
2023-05-10T20:47:25.452Z,101611.66
2023-05-10T20:49:51.968Z,101618.56
2023-05-10T20:52:18.435Z,101612.25
2023-05-10T20:54:44.913Z,101616.50
2023-05-10T20:57:14.474Z,101620.28
2023-05-10T20:59:41.205Z,101629.56
2023-05-10T21:02:08.076Z,101619.31
2023-05-10T21:04:35.025Z,101624.13
2023-05-10T21:07:01.542Z,101621.34
2023-05-10T21:09:27.941Z,101626.50
2023-05-10T21:11:54.374Z,101625.50
2023-05-10T21:14:20.765Z,101617.13
2023-05-10T21:16:47.195Z,101619.56
2023-05-10T21:19:13.644Z,101616.97
2023-05-10T21:21:40.106Z,101623.06
2023-05-10T21:24:07.149Z,101618.06
2023-05-10T21:26:33.654Z,101621.28
2023-05-10T21:29:00.084Z,101615.19
2023-05-10T21:31:26.559Z,101612.25
2023-05-10T21:33:53.005Z,101611.97
2023-05-10T21:36:19.513Z,101614.63
2023-05-10T21:38:46.677Z,101620.72
2023-05-10T21:41:13.115Z,101617.06
2023-05-10T21:43:39.551Z,101621.56
2023-05-10T21:46:07.093Z,101618.91
2023-05-10T21:48:33.669Z,101621.28
2023-05-10T21:51:01.460Z,101622.28
2023-05-10T21:53:28.548Z,101616.97
2023-05-10T21:55:57.850Z,101618.34
2023-05-10T21:58:24.292Z,101607.50
2023-05-10T22:00:50.890Z,101619.78
2023-05-10T22:03:18.266Z,101624.28
2023-05-10T22:05:44.728Z,101619.56
2023-05-10T22:08:11.141Z,101627.53
2023-05-10T22:10:37.560Z,101628.59
2023-05-10T22:13:03.967Z,101625.38
2023-05-10T22:15:34.217Z,101629.31
2023-05-10T22:18:02.048Z,101624.81
2023-05-10T22:20:28.495Z,101626.59
2023-05-10T22:22:55.643Z,101626.00
2023-05-10T22:25:22.225Z,101623.06
2023-05-10T22:27:48.778Z,101626.78
2023-05-10T22:30:15.393Z,101623.84
2023-05-10T22:32:41.968Z,101626.50
2023-05-10T22:35:08.675Z,101624.41
2023-05-10T22:37:35.007Z,101628.94
2023-05-10T22:40:01.377Z,101628.75
2023-05-10T22:42:27.781Z,101627.16
2023-05-10T22:44:54.198Z,101624.81
2023-05-10T22:47:20.604Z,101622.22
2023-05-10T22:49:47.095Z,101619.28
2023-05-10T22:52:13.522Z,101623.81
2023-05-10T22:54:39.861Z,101623.66
2023-05-10T22:57:06.913Z,101621.53
2023-05-10T22:59:33.561Z,101628.19
2023-05-10T23:02:00.031Z,101627.66
2023-05-10T23:04:26.581Z,101637.50
2023-05-10T23:06:53.648Z,101643.91
2023-05-10T23:09:20.081Z,101635.63
2023-05-10T23:11:46.922Z,101628.19
2023-05-10T23:14:13.333Z,101639.31
2023-05-10T23:16:39.841Z,101636.88
2023-05-10T23:19:07.114Z,101635.81
2023-05-10T23:21:34.441Z,101640.03
2023-05-10T23:24:00.953Z,101642.69
2023-05-10T23:26:27.379Z,101635.88
2023-05-10T23:28:53.760Z,101646.19
2023-05-10T23:31:20.190Z,101648.06
2023-05-10T23:33:46.621Z,101646.78
2023-05-10T23:36:13.052Z,101647.06
2023-05-10T23:38:39.521Z,101643.09
2023-05-10T23:41:06.150Z,101644.97
2023-05-10T23:43:32.532Z,101643.09
2023-05-10T23:45:59.316Z,101639.66
2023-05-10T23:48:25.849Z,101643.09
2023-05-10T23:50:52.245Z,101633.56
2023-05-10T23:53:18.722Z,101642.59
2023-05-10T23:55:45.495Z,101646.31
2023-05-10T23:58:12.477Z,101643.66
